createdAt,value
2018-12-15T00:00:44.104Z,0
2018-12-15T00:01:44.599Z,0
2018-12-15T00:02:44.836Z,0
2018-12-15T00:03:44.833Z,0
2018-12-15T00:04:45.382Z,0
2018-12-15T00:05:45.141Z,0
2018-12-15T00:06:45.420Z,0
2018-12-15T00:07:45.450Z,0
2018-12-15T00:08:44.975Z,0
2018-12-15T00:09:45.496Z,0
2018-12-15T00:10:45.285Z,0
2018-12-15T00:11:45.832Z,0
2018-12-15T00:12:45.285Z,0
2018-12-15T00:13:45.305Z,0
2018-12-15T00:14:45.651Z,0
2018-12-15T00:15:46.113Z,0
2018-12-15T00:16:45.709Z,0
2018-12-15T00:17:45.664Z,0
2018-12-15T00:18:45.810Z,0
2018-12-15T00:19:45.741Z,0
2018-12-15T00:20:45.520Z,0
2018-12-15T00:21:45.812Z,0
2018-12-15T00:22:45.252Z,0
2018-12-15T00:23:46.045Z,0
2018-12-15T00:24:46.330Z,0
2018-12-15T00:25:46.312Z,0
2018-12-15T00:26:45.830Z,0
2018-12-15T00:27:46.224Z,0
2018-12-15T00:28:45.849Z,0
2018-12-15T00:29:46.149Z,0
2018-12-15T00:30:46.164Z,0
2018-12-15T00:31:45.692Z,0
2018-12-15T00:32:46.199Z,0
2018-12-15T00:33:46.159Z,0
2018-12-15T00:34:46.251Z,0
2018-12-15T00:35:46.249Z,0
2018-12-15T00:36:45.794Z,0
2018-12-15T00:37:46.477Z,0
2018-12-15T00:38:46.635Z,0
2018-12-15T00:39:46.596Z,0
2018-12-15T00:40:47.030Z,0
2018-12-15T00:41:46.371Z,0
2018-12-15T00:42:46.392Z,0
2018-12-15T00:43:46.674Z,0
2018-12-15T00:44:47.095Z,0
2018-12-15T00:45:47.097Z,0
2018-12-15T00:46:47.027Z,0
2018-12-15T00:47:47.025Z,0
2018-12-15T00:48:46.995Z,0
2018-12-15T00:49:46.934Z,0
2018-12-15T00:50:47.516Z,0
2018-12-15T00:51:47.313Z,0
2018-12-15T00:52:47.054Z,0
2018-12-15T00:53:47.194Z,0
2018-12-15T00:54:48.005Z,0
2018-12-15T00:55:46.863Z,0
2018-12-15T00:56:47.283Z,0
2018-12-15T00:57:46.660Z,0
2018-12-15T00:58:47.186Z,0
2018-12-15T00:59:46.943Z,0
2018-12-15T01:00:46.945Z,0
2018-12-15T01:01:46.631Z,0
2018-12-15T01:02:47.872Z,0
2018-12-15T01:03:47.261Z,0
2018-12-15T01:04:47.217Z,0
2018-12-15T01:05:47.416Z,0
2018-12-15T01:06:47.729Z,0
2018-12-15T01:07:47.727Z,0
2018-12-15T01:08:47.409Z,0
2018-12-15T01:09:47.141Z,0
2018-12-15T01:10:48.406Z,0
2018-12-15T01:11:48.135Z,0
2018-12-15T01:12:48.053Z,0
2018-12-15T01:13:48.338Z,0
2018-12-15T01:14:49.279Z,0
2018-12-15T01:15:50.077Z,0
2018-12-15T01:16:49.406Z,0
2018-12-15T01:17:48.914Z,0
2018-12-15T01:18:48.813Z,0
2018-12-15T01:19:48.870Z,0
2018-12-15T01:20:49.842Z,0
2018-12-15T01:21:50.108Z,0
2018-12-15T01:22:49.597Z,0
2018-12-15T01:23:49.129Z,0
2018-12-15T01:24:49.917Z,0
2018-12-15T01:25:49.816Z,0
2018-12-15T01:26:49.758Z,0
2018-12-15T01:27:50.582Z,0
2018-12-15T01:28:49.821Z,0
2018-12-15T01:29:49.832Z,0
2018-12-15T01:30:50.154Z,0
2018-12-15T01:31:49.997Z,0
2018-12-15T01:32:49.499Z,0
2018-12-15T01:33:50.344Z,0
2018-12-15T01:34:50.368Z,0
2018-12-15T01:35:49.803Z,0
2018-12-15T01:36:50.035Z,0
2018-12-15T01:37:49.782Z,0
2018-12-15T01:39:55.915Z,0
2018-12-15T01:40:57.727Z,0
2018-12-15T01:41:57.719Z,0
2018-12-15T01:42:57.730Z,0
2018-12-15T01:43:58.028Z,0
2018-12-15T01:44:57.346Z,0
2018-12-15T01:45:58.074Z,0
2018-12-15T01:46:58.383Z,0
2018-12-15T01:47:58.167Z,0
2018-12-15T01:48:58.164Z,0
2018-12-15T01:49:58.168Z,0
2018-12-15T01:50:57.930Z,0
2018-12-15T01:51:57.986Z,0
2018-12-15T01:52:57.973Z,0
2018-12-15T01:53:58.403Z,0
2018-12-15T01:54:58.169Z,0
2018-12-15T01:55:59.214Z,0
2018-12-15T01:56:59.190Z,0
2018-12-15T01:57:59.217Z,0
2018-12-15T01:58:58.956Z,0
2018-12-15T01:59:58.969Z,0
2018-12-15T02:00:58.734Z,0
2018-12-15T02:01:59.465Z,0
2018-12-15T02:02:59.486Z,0
2018-12-15T02:03:59.258Z,0
2018-12-15T02:04:59.566Z,0
2018-12-15T02:05:59.556Z,0
2018-12-15T02:06:59.581Z,0
2018-12-15T02:07:59.620Z,0
2018-12-15T02:08:59.621Z,0
2018-12-15T02:09:59.128Z,0
2018-12-15T02:10:59.650Z,0
2018-12-15T02:12:00.876Z,0
2018-12-15T02:12:59.710Z,0
2018-12-15T02:13:59.468Z,0
2018-12-15T02:14:59.500Z,0
2018-12-15T02:15:59.985Z,0
2018-12-15T02:16:59.760Z,0
2018-12-15T02:17:59.761Z,0
2018-12-15T02:19:00.519Z,0
2018-12-15T02:20:00.519Z,0
2018-12-15T02:21:00.077Z,0
2018-12-15T02:22:00.802Z,0
2018-12-15T02:23:00.832Z,0
2018-12-15T02:24:00.599Z,0
2018-12-15T02:25:01.066Z,0
2018-12-15T02:26:00.625Z,0
2018-12-15T02:27:00.939Z,0
2018-12-15T02:28:00.675Z,0
2018-12-15T02:29:00.746Z,0
2018-12-15T02:30:00.722Z,0
2018-12-15T02:31:01.143Z,0
2018-12-15T02:32:01.111Z,0
2018-12-15T02:33:01.375Z,0
2018-12-15T02:34:01.134Z,0
2018-12-15T02:35:01.181Z,0
2018-12-15T02:36:00.841Z,0
2018-12-15T02:37:00.856Z,0
2018-12-15T02:38:00.876Z,0
2018-12-15T02:39:00.905Z,0
2018-12-15T02:40:00.904Z,0
2018-12-15T02:41:01.641Z,0
2018-12-15T02:42:01.573Z,0
2018-12-15T02:43:02.118Z,0
2018-12-15T02:44:02.371Z,0
2018-12-15T02:45:02.102Z,0
2018-12-15T02:46:02.364Z,0
2018-12-15T02:47:02.386Z,0
2018-12-15T02:48:02.461Z,0
2018-12-15T02:49:02.191Z,0
2018-12-15T02:50:02.383Z,0
2018-12-15T02:51:02.722Z,0
2018-12-15T02:52:02.461Z,0
2018-12-15T02:53:02.722Z,0
2018-12-15T02:54:02.739Z,0
2018-12-15T02:55:02.794Z,0
2018-12-15T02:56:03.451Z,0
2018-12-15T02:57:02.613Z,0
2018-12-15T02:58:02.894Z,0
2018-12-15T02:59:03.147Z,0
2018-12-15T03:01:03.183Z,0
2018-12-15T03:02:02.710Z,0
2018-12-15T03:03:03.633Z,0
2018-12-15T03:04:03.738Z,0
2018-12-15T03:05:03.332Z,0
2018-12-15T03:06:03.723Z,0
2018-12-15T03:07:03.562Z,0
2018-12-15T03:08:03.575Z,0
2018-12-15T03:09:03.371Z,0
2018-12-15T03:10:03.619Z,0
2018-12-15T03:11:03.599Z,0
2018-12-15T03:12:03.423Z,0
2018-12-15T03:13:03.993Z,0
2018-12-15T03:14:03.864Z,0
2018-12-15T03:15:03.865Z,0
2018-12-15T03:16:03.797Z,0
2018-12-15T03:17:03.801Z,0
2018-12-15T03:18:03.610Z,0
2018-12-15T03:19:03.342Z,0
2018-12-15T03:20:04.082Z,0
2018-12-15T03:21:04.109Z,0
2018-12-15T03:22:04.095Z,0
2018-12-15T03:23:03.899Z,0
2018-12-15T03:24:04.215Z,0
2018-12-15T03:25:04.215Z,0
2018-12-15T03:26:04.242Z,0
2018-12-15T03:27:03.941Z,0
2018-12-15T03:28:04.147Z,0
2018-12-15T03:29:04.650Z,0
2018-12-15T03:30:04.483Z,0
2018-12-15T03:31:05.062Z,0
2018-12-15T03:32:05.266Z,0
2018-12-15T03:33:05.268Z,0
2018-12-15T03:34:05.269Z,0
2018-12-15T03:35:05.364Z,0
2018-12-15T03:36:05.331Z,0
2018-12-15T03:37:05.358Z,0
2018-12-15T03:38:05.318Z,0
2018-12-15T03:39:05.388Z,0
2018-12-15T03:40:05.462Z,0
2018-12-15T03:41:05.196Z,0
2018-12-15T03:42:05.152Z,0
2018-12-15T03:43:05.826Z,0
2018-12-15T03:44:05.842Z,0
2018-12-15T03:45:05.904Z,0
2018-12-15T03:46:05.901Z,0
2018-12-15T03:47:05.684Z,0
2018-12-15T03:48:06.623Z,0
2018-12-15T03:49:06.759Z,0
2018-12-15T03:50:06.591Z,0
2018-12-15T03:51:06.804Z,0
2018-12-15T03:52:06.654Z,0
2018-12-15T03:53:06.800Z,0
2018-12-15T03:54:06.432Z,0
2018-12-15T03:55:07.363Z,0
2018-12-15T03:56:07.386Z,0
2018-12-15T03:57:07.310Z,0
2018-12-15T03:58:07.396Z,0
2018-12-15T03:59:07.331Z,0
2018-12-15T04:01:07.461Z,0
2018-12-15T04:02:07.139Z,0
2018-12-15T04:03:07.408Z,0
2018-12-15T04:04:07.608Z,0
2018-12-15T04:05:07.202Z,0
2018-12-15T04:06:07.363Z,0
2018-12-15T04:07:07.722Z,0
2018-12-15T04:08:08.176Z,0
2018-12-15T04:09:08.368Z,0
2018-12-15T04:10:08.175Z,0
2018-12-15T04:11:08.543Z,0
2018-12-15T04:12:09.020Z,0
2018-12-15T04:13:08.726Z,0
2018-12-15T04:14:09.311Z,0
2018-12-15T04:15:09.328Z,0
2018-12-15T04:16:09.006Z,0
2018-12-15T04:17:09.352Z,0
2018-12-15T04:18:13.494Z,0
2018-12-15T04:19:09.230Z,0
2018-12-15T04:20:09.742Z,0
2018-12-15T04:21:09.184Z,0
2018-12-15T04:22:09.624Z,0
2018-12-15T04:23:10.047Z,0
2018-12-15T04:24:09.353Z,0
2018-12-15T04:25:10.142Z,0
2018-12-15T04:26:10.114Z,0
2018-12-15T04:27:09.857Z,0
2018-12-15T04:28:10.289Z,0
2018-12-15T04:29:10.653Z,0
2018-12-15T04:30:10.916Z,0
2018-12-15T04:31:11.311Z,0
2018-12-15T04:32:11.966Z,0
2018-12-15T04:33:11.468Z,0
2018-12-15T04:34:11.772Z,0
2018-12-15T04:35:11.786Z,0
2018-12-15T04:36:12.424Z,0
2018-12-15T04:37:12.236Z,0
2018-12-15T04:38:12.701Z,0
2018-12-15T04:39:12.822Z,0
2018-12-15T04:40:13.322Z,0
2018-12-15T04:41:13.807Z,0
2018-12-15T04:42:14.298Z,0
2018-12-15T04:43:14.020Z,0
2018-12-15T04:44:14.242Z,0
2018-12-15T04:45:14.118Z,0
2018-12-15T04:46:14.343Z,0
2018-12-15T04:47:14.333Z,0
2018-12-15T04:48:21.412Z,0
2018-12-15T04:49:20.733Z,0
2018-12-15T04:50:21.114Z,0
2018-12-15T04:51:21.580Z,0
2018-12-15T04:52:21.962Z,0
2018-12-15T04:53:22.580Z,0
2018-12-15T04:54:22.597Z,0
2018-12-15T04:55:23.569Z,0
2018-12-15T04:56:22.642Z,0
2018-12-15T04:57:22.674Z,0
2018-12-15T04:58:22.221Z,0
2018-12-15T04:59:22.692Z,0
2018-12-15T05:00:21.674Z,0
2018-12-15T05:01:22.515Z,0
2018-12-15T05:02:22.953Z,0
2018-12-15T05:03:23.590Z,0
2018-12-15T05:04:23.356Z,0
2018-12-15T05:05:23.197Z,0
2018-12-15T05:06:23.489Z,0
2018-12-15T05:07:23.620Z,0
2018-12-15T05:08:24.020Z,0
2018-12-15T05:09:23.782Z,0
2018-12-15T05:10:23.915Z,0
2018-12-15T05:11:24.207Z,0
2018-12-15T05:12:24.579Z,0
2018-12-15T05:13:24.328Z,0
2018-12-15T05:14:24.753Z,0
2018-12-15T05:15:24.550Z,0
2018-12-15T05:16:24.681Z,0
2018-12-15T05:17:24.788Z,0
2018-12-15T05:18:28.284Z,0
2018-12-15T05:19:28.925Z,0
2018-12-15T05:20:28.922Z,0
2018-12-15T05:21:28.686Z,0
2018-12-15T05:22:29.048Z,0
2018-12-15T05:23:29.432Z,0
2018-12-15T05:24:30.059Z,0
2018-12-15T05:25:30.083Z,0
2018-12-15T05:26:29.854Z,0
2018-12-15T05:27:30.227Z,0
2018-12-15T05:28:30.612Z,0
2018-12-15T05:29:31.004Z,0
2018-12-15T05:30:31.344Z,0
2018-12-15T05:31:31.386Z,0
2018-12-15T05:32:31.189Z,0
2018-12-15T05:33:31.894Z,0
2018-12-15T05:34:31.583Z,0
2018-12-15T05:35:31.944Z,0
2018-12-15T05:36:32.607Z,0
2018-12-15T05:37:32.096Z,0
2018-12-15T05:38:32.724Z,0
2018-12-15T05:39:32.776Z,0
2018-12-15T05:40:32.529Z,0
2018-12-15T05:41:33.166Z,0
2018-12-15T05:42:33.194Z,0
2018-12-15T05:43:33.565Z,0
2018-12-15T05:44:33.685Z,0
2018-12-15T05:45:34.318Z,0
2018-12-15T05:46:34.074Z,0
2018-12-15T05:47:34.435Z,0
2018-12-15T05:48:35.728Z,0
2018-12-15T05:49:35.213Z,0
2018-12-15T05:50:35.510Z,0
2018-12-15T05:51:35.610Z,0
2018-12-15T05:52:35.982Z,0
2018-12-15T05:53:36.386Z,0
2018-12-15T05:54:36.783Z,0
2018-12-15T05:55:37.407Z,0
2018-12-15T05:56:37.219Z,0
2018-12-15T05:57:37.313Z,0
2018-12-15T05:58:38.017Z,0
2018-12-15T05:59:38.020Z,0
2018-12-15T06:00:37.828Z,0
2018-12-15T06:01:38.069Z,0
2018-12-15T06:02:37.580Z,0
2018-12-15T06:03:37.944Z,0
2018-12-15T06:04:38.065Z,0
2018-12-15T06:05:38.434Z,0
2018-12-15T06:06:39.051Z,0
2018-12-15T06:07:38.805Z,0
2018-12-15T06:08:38.922Z,0
2018-12-15T06:09:39.253Z,0
2018-12-15T06:10:38.812Z,0
2018-12-15T06:11:39.491Z,0
2018-12-15T06:12:39.469Z,0
2018-12-15T06:13:39.465Z,0
2018-12-15T06:14:39.285Z,0
2018-12-15T06:15:39.374Z,0
2018-12-15T06:16:39.982Z,0
2018-12-15T06:17:39.778Z,0
2018-12-15T06:18:41.746Z,0
2018-12-15T06:19:41.860Z,0
2018-12-15T06:20:41.832Z,0
2018-12-15T06:21:42.233Z,0
2018-12-15T06:22:42.591Z,0
2018-12-15T06:23:43.405Z,0
2018-12-15T06:24:43.531Z,0
2018-12-15T06:25:43.890Z,0
2018-12-15T06:26:44.517Z,0
2018-12-15T06:27:44.522Z,0
2018-12-15T06:28:44.539Z,0
2018-12-15T06:29:44.067Z,0
2018-12-15T06:30:44.585Z,0
2018-12-15T06:31:44.666Z,0
2018-12-15T06:32:45.296Z,0
2018-12-15T06:33:45.030Z,0
2018-12-15T06:34:45.472Z,0
2018-12-15T06:35:45.815Z,0
2018-12-15T06:36:45.900Z,0
2018-12-15T06:37:46.254Z,0
2018-12-15T06:38:46.030Z,0
2018-12-15T06:39:46.756Z,0
2018-12-15T06:40:46.408Z,0
2018-12-15T06:41:46.772Z,0
2018-12-15T06:42:46.867Z,0
2018-12-15T06:43:46.832Z,0
2018-12-15T06:44:46.924Z,0
2018-12-15T06:45:47.532Z,0
2018-12-15T06:46:47.058Z,0
2018-12-15T06:47:47.425Z,0
2018-12-15T06:48:48.555Z,0
2018-12-15T06:49:48.541Z,0
2018-12-15T06:50:48.337Z,0
2018-12-15T06:51:48.730Z,0
2018-12-15T06:52:49.130Z,0
2018-12-15T06:53:49.533Z,0
2018-12-15T06:54:50.153Z,0
2018-12-15T06:55:50.808Z,0
2018-12-15T06:56:50.214Z,0
2018-12-15T06:57:49.996Z,0
2018-12-15T06:58:50.345Z,0
2018-12-15T06:59:50.133Z,0
2018-12-15T07:00:50.582Z,0
2018-12-15T07:01:50.288Z,0
2018-12-15T07:02:50.387Z,0
2018-12-15T07:03:50.688Z,0
2018-12-15T07:04:50.933Z,0
2018-12-15T07:05:50.469Z,0
2018-12-15T07:06:52.287Z,0
2018-12-15T07:07:52.309Z,0
2018-12-15T07:08:52.770Z,0
2018-12-15T07:09:52.773Z,0
2018-12-15T07:10:52.346Z,0
2018-12-15T07:11:52.646Z,0
2018-12-15T07:12:52.575Z,0
2018-12-15T07:13:52.695Z,0
2018-12-15T07:14:52.815Z,0
2018-12-15T07:15:53.459Z,0
2018-12-15T07:16:53.194Z,0
2018-12-15T07:17:53.555Z,0
2018-12-15T07:18:54.721Z,0
2018-12-15T07:19:53.339Z,0
2018-12-15T07:20:53.959Z,0
2018-12-15T07:21:54.000Z,0
2018-12-15T07:22:53.734Z,0
2018-12-15T07:23:54.020Z,0
2018-12-15T07:24:54.035Z,0
2018-12-15T07:25:54.116Z,0
2018-12-15T07:26:54.089Z,0
2018-12-15T07:27:54.439Z,0
2018-12-15T07:28:54.309Z,0
2018-12-15T07:29:54.832Z,0
2018-12-15T07:30:54.618Z,0
2018-12-15T07:31:54.745Z,0
2018-12-15T07:32:55.353Z,5
2018-12-15T07:33:55.443Z,5
2018-12-15T07:35:00.835Z,5
2018-12-15T07:35:55.842Z,5
2018-12-15T07:36:56.279Z,5
2018-12-15T07:37:56.021Z,5
2018-12-15T07:38:56.027Z,5
2018-12-15T07:39:56.926Z,5
2018-12-15T07:40:56.446Z,5
2018-12-15T07:41:56.819Z,5
2018-12-15T07:42:57.004Z,5
2018-12-15T07:43:57.492Z,5
2018-12-15T07:44:57.589Z,5
2018-12-15T07:45:57.729Z,10
2018-12-15T07:46:58.370Z,10
2018-12-15T07:47:58.384Z,10
2018-12-15T07:49:01.269Z,10
2018-12-15T07:49:58.190Z,10
2018-12-15T07:50:58.064Z,10
2018-12-15T07:51:58.823Z,10
2018-12-15T07:52:58.880Z,10
2018-12-15T07:53:58.876Z,10
2018-12-15T07:54:59.221Z,10
2018-12-15T07:55:58.748Z,10
2018-12-15T07:56:59.376Z,10
2018-12-15T07:57:59.729Z,10
2018-12-15T07:59:00.081Z,10
2018-12-15T08:00:00.187Z,10
2018-12-15T08:01:00.424Z,10
2018-12-15T08:02:00.201Z,10
2018-12-15T08:03:00.231Z,15
2018-12-15T08:04:00.237Z,15
2018-12-15T08:05:00.066Z,15
2018-12-15T08:06:00.291Z,15
2018-12-15T08:07:00.136Z,15
2018-12-15T08:08:00.369Z,15
2018-12-15T08:08:59.802Z,15
2018-12-15T08:10:00.925Z,15
2018-12-15T08:11:00.626Z,15
2018-12-15T08:12:00.617Z,20
2018-12-15T08:13:00.600Z,20
2018-12-15T08:14:00.334Z,20
2018-12-15T08:15:01.034Z,20
2018-12-15T08:16:01.063Z,20
2018-12-15T08:17:00.829Z,20
2018-12-15T08:18:01.280Z,20
2018-12-15T08:19:08.448Z,20
2018-12-15T08:20:08.285Z,20
2018-12-15T08:21:08.335Z,20
2018-12-15T08:22:08.328Z,25
2018-12-15T08:23:08.314Z,25
2018-12-15T08:24:08.074Z,25
2018-12-15T08:25:08.476Z,25
2018-12-15T08:26:09.218Z,25
2018-12-15T08:27:09.228Z,25
2018-12-15T08:28:09.263Z,25
2018-12-15T08:29:09.239Z,30
2018-12-15T08:30:09.011Z,30
2018-12-15T08:31:09.470Z,30
2018-12-15T08:32:10.174Z,30
2018-12-15T08:33:10.206Z,30
2018-12-15T08:34:09.949Z,30
2018-12-15T08:35:10.404Z,30
2018-12-15T08:36:10.365Z,30
2018-12-15T08:37:11.020Z,30
2018-12-15T08:38:11.543Z,35
2018-12-15T08:39:10.771Z,35
2018-12-15T08:40:11.540Z,35
2018-12-15T08:41:11.525Z,35
2018-12-15T08:42:11.301Z,35
2018-12-15T08:43:11.265Z,35
2018-12-15T08:44:11.973Z,40
2018-12-15T08:45:12.060Z,40
2018-12-15T08:46:11.707Z,40
2018-12-15T08:47:11.891Z,45
2018-12-15T08:48:12.413Z,45
2018-12-15T08:49:14.580Z,45
2018-12-15T08:50:12.277Z,45
2018-12-15T08:51:12.487Z,45
2018-12-15T08:52:12.234Z,50
2018-12-15T08:53:12.915Z,50
2018-12-15T08:54:12.706Z,50
2018-12-15T08:55:12.885Z,55
2018-12-15T08:56:13.361Z,55
2018-12-15T08:57:13.603Z,55
2018-12-15T08:58:14.645Z,60
2018-12-15T08:59:13.646Z,60
2018-12-15T09:01:13.408Z,60
2018-12-15T09:02:14.069Z,55
2018-12-15T09:03:13.571Z,55
2018-12-15T09:04:14.198Z,55
2018-12-15T09:05:14.486Z,60
2018-12-15T09:06:14.404Z,60
2018-12-15T09:07:14.780Z,65
2018-12-15T09:08:14.549Z,65
2018-12-15T09:09:14.578Z,70
2018-12-15T09:10:15.042Z,70
2018-12-15T09:11:15.702Z,70
2018-12-15T09:12:15.499Z,70
2018-12-15T09:13:15.619Z,70
2018-12-15T09:14:16.230Z,70
2018-12-15T09:15:15.774Z,70
2018-12-15T09:16:16.014Z,70
2018-12-15T09:17:16.631Z,70
2018-12-15T09:18:17.172Z,75
2018-12-15T09:19:20.560Z,80
2018-12-15T09:20:17.033Z,85
2018-12-15T09:21:17.059Z,90
2018-12-15T09:22:20.934Z,95
2018-12-15T09:23:17.108Z,90
2018-12-15T09:24:17.099Z,90
2018-12-15T09:25:17.144Z,90
2018-12-15T09:26:16.883Z,95
2018-12-15T09:27:16.477Z,100
2018-12-15T09:28:16.993Z,100
2018-12-15T09:29:17.089Z,95
2018-12-15T09:30:17.180Z,95
2018-12-15T09:31:17.550Z,90
2018-12-15T09:32:17.643Z,85
2018-12-15T09:33:17.765Z,80
2018-12-15T09:34:18.118Z,75
2018-12-15T09:35:18.654Z,75
2018-12-15T09:36:18.367Z,75
2018-12-15T09:37:18.986Z,75
2018-12-15T09:38:19.320Z,80
2018-12-15T09:39:19.443Z,80
2018-12-15T09:40:20.349Z,85
2018-12-15T09:41:19.328Z,85
2018-12-15T09:42:20.120Z,90
2018-12-15T09:43:19.894Z,90
2018-12-15T09:44:19.743Z,90
2018-12-15T09:45:20.612Z,90
2018-12-15T09:46:20.290Z,85
2018-12-15T09:47:20.046Z,80
2018-12-15T09:48:20.658Z,80
2018-12-15T09:49:27.207Z,75
2018-12-15T09:50:20.698Z,70
2018-12-15T09:51:20.466Z,65
2018-12-15T09:52:20.579Z,60
2018-12-15T09:53:21.272Z,55
2018-12-15T09:54:20.946Z,50
2018-12-15T09:55:21.388Z,50
2018-12-15T09:56:21.108Z,50
2018-12-15T09:57:21.559Z,55
2018-12-15T09:58:22.203Z,55
2018-12-15T09:59:22.581Z,55
2018-12-15T10:00:22.963Z,55
2018-12-15T10:01:23.891Z,55
2018-12-15T10:02:22.663Z,60
2018-12-15T10:03:22.710Z,60
2018-12-15T10:04:22.733Z,60
2018-12-15T10:05:22.518Z,60
2018-12-15T10:06:22.532Z,60
2018-12-15T10:07:22.769Z,60
2018-12-15T10:08:22.539Z,60
2018-12-15T10:09:22.570Z,60
2018-12-15T10:10:23.038Z,60
2018-12-15T10:11:23.780Z,60
2018-12-15T10:12:23.510Z,60
2018-12-15T10:13:24.251Z,55
2018-12-15T10:14:24.215Z,55
2018-12-15T10:15:23.972Z,55
2018-12-15T10:16:24.421Z,55
2018-12-15T10:17:24.422Z,55
2018-12-15T10:18:24.459Z,55
2018-12-15T10:19:29.269Z,55
2018-12-15T10:20:24.805Z,55
2018-12-15T10:21:24.258Z,55
2018-12-15T10:22:24.772Z,55
2018-12-15T10:23:24.461Z,55
2018-12-15T10:24:25.179Z,55
2018-12-15T10:25:25.388Z,50
2018-12-15T10:26:24.973Z,50
2018-12-15T10:27:25.505Z,50
2018-12-15T10:28:25.453Z,50
2018-12-15T10:29:26.514Z,50
2018-12-15T10:30:25.779Z,50
2018-12-15T10:31:25.764Z,50
2018-12-15T10:32:25.261Z,50
2018-12-15T10:33:26.022Z,50
2018-12-15T10:34:26.349Z,50
2018-12-15T10:35:26.287Z,50
2018-12-15T10:36:26.072Z,55
2018-12-15T10:37:26.183Z,55
2018-12-15T10:38:26.627Z,55
2018-12-15T10:39:25.931Z,55
2018-12-15T10:40:26.442Z,55
2018-12-15T10:41:26.979Z,55
2018-12-15T10:42:26.211Z,55
2018-12-15T10:43:26.668Z,55
2018-12-15T10:44:26.154Z,55
2018-12-15T10:45:27.031Z,55
2018-12-15T10:46:27.559Z,55
2018-12-15T10:47:26.979Z,55
2018-12-15T10:48:27.698Z,55
2018-12-15T10:49:33.208Z,55
2018-12-15T10:50:27.767Z,55
2018-12-15T10:51:27.806Z,55
2018-12-15T10:52:27.786Z,55
2018-12-15T10:53:27.799Z,50
2018-12-15T10:54:27.866Z,50
2018-12-15T10:55:28.018Z,50
2018-12-15T10:56:27.905Z,45
2018-12-15T10:57:27.883Z,45
2018-12-15T10:58:27.894Z,50
2018-12-15T10:59:27.633Z,50
2018-12-15T11:00:27.594Z,50
2018-12-15T11:01:28.591Z,50
2018-12-15T11:02:28.210Z,50
2018-12-15T11:03:28.472Z,50
2018-12-15T11:04:28.650Z,50
2018-12-15T11:05:29.103Z,50
2018-12-15T11:06:29.098Z,50
2018-12-15T11:07:29.496Z,50
2018-12-15T11:08:29.275Z,50
2018-12-15T11:09:29.956Z,55
2018-12-15T11:10:29.759Z,55
2018-12-15T11:11:30.172Z,55
2018-12-15T11:12:30.204Z,55
2018-12-15T11:13:30.221Z,55
2018-12-15T11:14:29.985Z,55
2018-12-15T11:15:30.559Z,60
2018-12-15T11:16:30.807Z,60
2018-12-15T11:17:31.520Z,60
2018-12-15T11:18:31.531Z,60
2018-12-15T11:19:36.975Z,60
2018-12-15T11:20:31.558Z,60
2018-12-15T11:21:31.325Z,60
2018-12-15T11:22:31.626Z,60
2018-12-15T11:23:31.605Z,60
2018-12-15T11:24:31.631Z,60
2018-12-15T11:25:31.425Z,60
2018-12-15T11:26:31.590Z,60
2018-12-15T11:27:32.223Z,60
2018-12-15T11:28:32.542Z,60
2018-12-15T11:29:32.299Z,60
2018-12-15T11:30:32.353Z,60
2018-12-15T11:31:32.339Z,60
2018-12-15T11:32:32.436Z,60
2018-12-15T11:33:32.374Z,60
2018-12-15T11:34:32.429Z,55
2018-12-15T11:35:32.454Z,50
2018-12-15T11:36:32.467Z,45
2018-12-15T11:37:32.907Z,45
2018-12-15T11:38:32.506Z,40
2018-12-15T11:39:32.527Z,40
2018-12-15T11:40:32.664Z,40
2018-12-15T11:41:33.408Z,40
2018-12-15T11:42:33.140Z,40
2018-12-15T11:43:33.881Z,40
2018-12-15T11:44:33.713Z,40
2018-12-15T11:45:33.637Z,40
2018-12-15T11:46:34.366Z,40
2018-12-15T11:47:34.352Z,35
2018-12-15T11:48:34.120Z,30
2018-12-15T11:49:34.820Z,30
2018-12-15T11:50:35.257Z,35
2018-12-15T11:51:34.941Z,35
2018-12-15T11:52:34.978Z,35
2018-12-15T11:53:35.325Z,35
2018-12-15T11:54:34.942Z,35
2018-12-15T11:55:35.007Z,35
2018-12-15T11:56:35.023Z,35
2018-12-15T11:57:34.776Z,35
2018-12-15T11:58:36.080Z,35
2018-12-15T11:59:35.518Z,40
2018-12-15T12:00:35.576Z,40
2018-12-15T12:01:35.803Z,40
2018-12-15T12:02:41.668Z,40
2018-12-15T12:03:35.395Z,40
2018-12-15T12:04:35.709Z,45
2018-12-15T12:05:35.712Z,45
2018-12-15T12:06:35.232Z,40
2018-12-15T12:07:36.017Z,40
2018-12-15T12:08:36.193Z,40
2018-12-15T12:09:35.791Z,40
2018-12-15T12:10:36.065Z,45
2018-12-15T12:11:36.554Z,40
2018-12-15T12:12:36.841Z,40
2018-12-15T12:13:36.586Z,35
2018-12-15T12:14:36.355Z,40
2018-12-15T12:15:36.809Z,40
2018-12-15T12:16:37.269Z,45
2018-12-15T12:17:37.205Z,45
2018-12-15T12:18:37.940Z,45
2018-12-15T12:19:37.953Z,45
2018-12-15T12:20:39.051Z,45
2018-12-15T12:21:37.494Z,45
2018-12-15T12:22:38.081Z,45
2018-12-15T12:23:37.320Z,45
2018-12-15T12:24:38.068Z,45
2018-12-15T12:25:37.605Z,50
2018-12-15T12:26:38.123Z,50
2018-12-15T12:27:37.896Z,50
2018-12-15T12:28:37.900Z,50
2018-12-15T12:29:38.180Z,50
2018-12-15T12:30:38.723Z,50
2018-12-15T12:31:38.490Z,50
2018-12-15T12:32:38.732Z,50
2018-12-15T12:33:38.511Z,50
2018-12-15T12:34:38.530Z,45
2018-12-15T12:35:39.016Z,50
2018-12-15T12:36:39.875Z,45
2018-12-15T12:37:39.026Z,45
2018-12-15T12:38:39.237Z,45
2018-12-15T12:39:39.550Z,35
2018-12-15T12:40:39.121Z,30
2018-12-15T12:41:39.346Z,25
2018-12-15T12:42:39.606Z,25
2018-12-15T12:43:39.648Z,20
2018-12-15T12:44:39.349Z,20
2018-12-15T12:45:39.856Z,20
2018-12-15T12:46:39.895Z,15
2018-12-15T12:47:39.846Z,20
2018-12-15T12:48:40.353Z,15
2018-12-15T12:49:40.096Z,20
2018-12-15T12:50:40.227Z,20
2018-12-15T12:51:40.398Z,25
2018-12-15T12:52:40.422Z,25
2018-12-15T12:53:40.423Z,30
2018-12-15T12:54:40.189Z,35
2018-12-15T12:55:40.515Z,35
2018-12-15T12:56:40.245Z,35
2018-12-15T12:57:39.766Z,35
2018-12-15T12:58:40.322Z,35
2018-12-15T12:59:40.558Z,35
2018-12-15T13:00:40.905Z,35
2018-12-15T13:01:43.153Z,35
2018-12-15T13:02:41.392Z,35
2018-12-15T13:03:42.057Z,35
2018-12-15T13:04:41.465Z,35
2018-12-15T13:05:41.513Z,35
2018-12-15T13:06:41.431Z,35
2018-12-15T13:07:41.694Z,35
2018-12-15T13:08:43.158Z,35
2018-12-15T13:09:41.694Z,35
2018-12-15T13:10:40.971Z,35
2018-12-15T13:11:41.978Z,35
2018-12-15T13:12:42.000Z,35
2018-12-15T13:13:45.874Z,35
2018-12-15T13:14:42.596Z,35
2018-12-15T13:15:41.815Z,35
2018-12-15T13:16:41.732Z,35
2018-12-15T13:17:42.356Z,35
2018-12-15T13:18:41.450Z,30
2018-12-15T13:19:41.601Z,35
2018-12-15T13:20:41.943Z,35
2018-12-15T13:21:42.292Z,30
2018-12-15T13:22:41.672Z,30
2018-12-15T13:23:41.913Z,30
2018-12-15T13:24:41.814Z,30
2018-12-15T13:25:41.389Z,30
2018-12-15T13:26:45.625Z,30
2018-12-15T13:27:42.431Z,30
2018-12-15T13:28:41.923Z,30
2018-12-15T13:29:42.901Z,30
2018-12-15T13:30:43.755Z,30
2018-12-15T13:31:42.926Z,30
2018-12-15T13:32:41.466Z,30
2018-12-15T13:33:42.911Z,30
2018-12-15T13:34:42.468Z,30
2018-12-15T13:35:42.618Z,30
2018-12-15T13:36:43.988Z,25
2018-12-15T13:37:42.285Z,25
2018-12-15T13:38:42.184Z,25
2018-12-15T13:39:41.912Z,25
2018-12-15T13:40:41.880Z,25
2018-12-15T13:41:42.191Z,25
2018-12-15T13:42:42.113Z,25
2018-12-15T13:43:42.521Z,25
2018-12-15T13:44:44.582Z,25
2018-12-15T13:45:42.716Z,25
2018-12-15T13:46:43.048Z,25
2018-12-15T13:47:43.227Z,25
2018-12-15T13:48:42.600Z,25
2018-12-15T13:49:42.786Z,25
